Time;durP1;ratioP1;P1;durP2;ratioP2;P2;SDS_P1;SDS_P2;PMS_P1;PMS_P2;Temp;Humidity;BMP_temperature;BMP_pressure;BME280_temperature;BME280_humidity;BME280_pressure;Samples;Min_cycle;Max_cycle;Signal;HPM_P1;HPM_P2
2023/08/18 00:00:42;;;;;;;3.58;3.15;;;17.20;99.90;;;;;;5023422;28;20032;-36
2023/08/18 00:03:08;;;;;;;3.25;2.95;;;17.10;99.90;;;;;;5019051;28;20028;-42
2023/08/18 00:05:35;;;;;;;3.78;2.85;;;17.00;99.90;;;;;;5041467;28;20072;-41
2023/08/18 00:08:02;;;;;;;3.05;2.65;;;17.00;99.90;;;;;;5005595;28;20045;-41
2023/08/18 00:10:27;;;;;;;5.13;3.17;;;17.00;99.90;;;;;;5021299;28;20033;-42
2023/08/18 00:12:53;;;;;;;4.40;2.90;;;17.00;99.90;;;;;;5039414;28;20063;-41
2023/08/18 00:15:18;;;;;;;3.45;3.08;;;17.00;99.90;;;;;;5038392;28;20430;-42
2023/08/18 00:17:44;;;;;;;3.28;2.97;;;17.00;99.90;;;;;;5037467;28;20049;-39
2023/08/18 00:20:10;;;;;;;4.65;3.28;;;17.00;99.90;;;;;;5041098;28;20596;-41
2023/08/18 00:22:36;;;;;;;6.43;2.88;;;17.10;99.90;;;;;;5035358;28;20152;-41
2023/08/18 00:25:01;;;;;;;5.10;3.15;;;17.10;99.90;;;;;;5046410;28;20498;-35
2023/08/18 00:27:27;;;;;;;4.38;2.67;;;17.10;99.90;;;;;;5042981;28;20393;-30
2023/08/18 00:29:52;;;;;;;3.00;2.50;;;17.10;99.90;;;;;;5037169;28;20031;-30
2023/08/18 00:32:18;;;;;;;3.88;2.72;;;17.00;99.90;;;;;;5038767;28;20469;-31
2023/08/18 00:34:44;;;;;;;2.50;2.30;;;17.00;99.90;;;;;;5045400;28;20032;-31
2023/08/18 00:37:09;;;;;;;2.60;2.35;;;16.90;99.90;;;;;;5040899;28;20033;-31
2023/08/18 00:39:35;;;;;;;2.72;2.53;;;16.80;99.90;;;;;;5039528;28;20029;-33
2023/08/18 00:42:01;;;;;;;2.78;2.50;;;16.90;99.90;;;;;;5039487;28;20043;-32
2023/08/18 00:44:26;;;;;;;6.70;2.35;;;16.80;99.90;;;;;;5039919;28;20041;-31
2023/08/18 00:46:53;;;;;;;2.33;2.13;;;16.60;99.90;;;;;;5041359;28;20029;-31
2023/08/18 00:49:19;;;;;;;2.60;2.40;;;16.50;99.90;;;;;;5043728;28;20036;-31
2023/08/18 00:51:46;;;;;;;3.17;2.40;;;16.50;99.90;;;;;;5043176;28;20044;-34
2023/08/18 00:54:12;;;;;;;2.92;2.63;;;16.50;99.90;;;;;;5039996;28;20025;-32
2023/08/18 00:56:39;;;;;;;5.00;3.10;;;16.60;99.90;;;;;;5040637;28;20429;-31
2023/08/18 00:59:06;;;;;;;3.05;2.72;;;16.60;99.90;;;;;;5038630;28;20470;-40
2023/08/18 01:01:33;;;;;;;7.10;2.97;;;16.70;99.90;;;;;;5039570;28;20240;-40
2023/08/18 01:03:59;;;;;;;3.40;3.10;;;16.70;99.90;;;;;;5039340;28;20029;-38
2023/08/18 01:06:24;;;;;;;4.68;3.08;;;16.70;99.90;;;;;;5041057;28;20482;-32
2023/08/18 01:08:50;;;;;;;5.28;3.10;;;16.70;99.90;;;;;;5044892;28;20115;-32
2023/08/18 01:11:38;;;;;;;5.40;3.70;;;16.70;99.90;;;;;;5044697;28;20071;-34
2023/08/18 01:14:29;;;;;;;5.82;3.60;;;16.60;99.90;;;;;;5041370;28;20049;-31
2023/08/18 01:17:01;;;;;;;3.42;2.92;;;16.50;99.90;;;;;;5043698;28;20037;-33
2023/08/18 01:19:27;;;;;;;5.20;3.30;;;16.40;99.90;;;;;;5043662;28;20025;-32
2023/08/18 01:21:57;;;;;;;5.70;3.40;;;16.40;99.90;;;;;;5034993;28;20040;-31
2023/08/18 01:24:24;;;;;;;4.03;3.45;;;16.50;99.90;;;;;;5041199;28;20109;-32
2023/08/18 01:26:51;;;;;;;4.85;3.30;;;16.50;99.90;;;;;;5046628;28;20705;-31
2023/08/18 01:29:18;;;;;;;3.60;3.17;;;16.50;99.90;;;;;;5040889;28;20034;-38
2023/08/18 01:31:47;;;;;;;5.03;3.58;;;16.50;99.90;;;;;;5046456;28;20079;-31
2023/08/18 01:34:17;;;;;;;5.53;3.05;;;16.50;99.90;;;;;;5040316;28;20029;-38
2023/08/18 01:36:44;;;;;;;6.97;3.30;;;16.50;99.90;;;;;;5048349;28;20382;-31
2023/08/18 01:39:12;;;;;;;4.55;2.97;;;16.40;99.90;;;;;;5043184;28;20053;-31
2023/08/18 01:41:39;;;;;;;;;;;16.30;99.90;;;;;;5039809;28;20117;-32
2023/08/18 01:44:07;;;;;;;4.13;2.20;;;16.20;99.90;;;;;;5047115;28;19934;-37
2023/08/18 01:46:33;;;;;;;2.67;2.47;;;16.20;99.90;;;;;;5044814;28;20618;-41
2023/08/18 01:48:59;;;;;;;2.85;2.63;;;16.10;99.90;;;;;;5046238;28;20033;-41
2023/08/18 01:51:25;;;;;;;4.55;2.83;;;16.00;99.90;;;;;;5041198;28;20481;-41
2023/08/18 01:53:50;;;;;;;5.78;3.00;;;16.10;99.90;;;;;;5026681;28;20025;-40
2023/08/18 01:56:16;;;;;;;3.97;3.13;;;16.10;99.90;;;;;;5046404;28;20657;-36
2023/08/18 01:58:41;;;;;;;3.85;3.47;;;16.20;99.90;;;;;;5041867;28;20040;-42
2023/08/18 02:01:07;;;;;;;4.25;2.70;;;16.20;99.90;;;;;;5042208;28;20025;-42
2023/08/18 02:03:33;;;;;;;5.07;2.63;;;16.30;99.90;;;;;;5043149;28;20029;-41
2023/08/18 02:05:58;;;;;;;2.50;2.30;;;16.30;99.90;;;;;;5041776;28;20112;-41
2023/08/18 02:08:24;;;;;;;1.92;1.83;;;16.10;99.90;;;;;;5040105;28;20587;-41
2023/08/18 02:10:50;;;;;;;5.65;3.25;;;16.10;99.90;;;;;;5036076;28;20034;-41
2023/08/18 02:13:15;;;;;;;3.72;3.38;;;16.10;99.90;;;;;;5038991;28;20108;-39
2023/08/18 02:15:44;;;;;;;3.55;2.97;;;15.90;99.90;;;;;;5039393;28;20135;-42
2023/08/18 02:18:09;;;;;;;3.60;3.30;;;15.70;99.90;;;;;;5034211;28;20033;-39
2023/08/18 02:20:36;;;;;;;4.88;3.10;;;15.80;99.90;;;;;;5042861;28;20761;-38
2023/08/18 02:23:02;;;;;;;5.47;3.00;;;15.70;99.90;;;;;;5042306;28;20033;-42
2023/08/18 02:25:27;;;;;;;3.38;2.80;;;15.70;99.90;;;;;;5036587;28;20086;-41
2023/08/18 02:27:53;;;;;;;5.53;3.33;;;15.70;99.90;;;;;;5040073;28;20044;-37
2023/08/18 02:30:18;;;;;;;3.65;3.05;;;15.50;99.90;;;;;;5043436;28;20021;-42
2023/08/18 02:32:44;;;;;;;6.43;4.20;;;15.60;99.90;;;;;;5037711;28;20645;-42
2023/08/18 02:35:09;;;;;;;6.05;3.58;;;15.70;99.90;;;;;;5039505;28;20021;-41
2023/08/18 02:37:35;;;;;;;3.25;2.95;;;15.70;99.90;;;;;;5042077;28;20103;-40
2023/08/18 02:40:01;;;;;;;5.50;3.53;;;15.60;99.90;;;;;;5040186;28;20555;-38
2023/08/18 02:42:26;;;;;;;4.38;3.47;;;15.60;99.90;;;;;;5043830;28;20037;-42
2023/08/18 02:44:52;;;;;;;4.60;3.70;;;15.70;99.90;;;;;;5022919;28;20397;-42
2023/08/18 02:47:17;;;;;;;3.97;3.15;;;15.70;99.90;;;;;;5038099;28;20026;-36
2023/08/18 02:49:46;;;;;;;3.70;3.17;;;15.70;99.90;;;;;;5045023;28;20050;-42
2023/08/18 02:52:12;;;;;;;4.30;3.20;;;15.80;99.90;;;;;;5038900;28;20507;-42
2023/08/18 02:54:37;;;;;;;3.47;3.17;;;15.90;99.90;;;;;;5038584;28;20060;-39
2023/08/18 02:57:03;;;;;;;4.22;3.33;;;15.90;99.90;;;;;;5044666;28;20243;-42
2023/08/18 02:59:28;;;;;;;5.35;3.83;;;15.80;99.90;;;;;;5039853;28;20025;-41
2023/08/18 03:01:54;;;;;;;4.38;3.20;;;15.90;99.90;;;;;;5036210;28;20456;-42
2023/08/18 03:04:20;;;;;;;4.57;3.10;;;15.90;99.90;;;;;;5038993;28;20076;-40
2023/08/18 03:06:45;;;;;;;5.45;3.28;;;15.90;99.90;;;;;;5042427;28;20107;-37
2023/08/18 03:09:11;;;;;;;3.78;3.17;;;15.60;99.90;;;;;;5023892;28;20039;-42
2023/08/18 03:11:36;;;;;;;4.18;3.63;;;15.60;99.90;;;;;;5039267;28;20036;-42
2023/08/18 03:14:04;;;;;;;2.88;2.55;;;15.50;99.90;;;;;;5038425;28;20902;-41
2023/08/18 03:16:30;;;;;;;2.83;2.50;;;15.50;99.90;;;;;;5040321;28;20029;-42
2023/08/18 03:18:56;;;;;;;3.17;2.88;;;15.60;99.90;;;;;;5038912;28;20035;-42
2023/08/18 03:21:21;;;;;;;3.03;2.72;;;15.50;99.90;;;;;;5040601;28;20025;-42
2023/08/18 03:23:47;;;;;;;2.95;2.47;;;15.60;99.90;;;;;;5039765;28;20030;-38
2023/08/18 03:26:12;;;;;;;3.40;2.80;;;15.70;99.90;;;;;;5042492;28;20024;-39
2023/08/18 03:28:38;;;;;;;3.08;2.80;;;15.70;99.90;;;;;;5040365;28;20064;-42
2023/08/18 03:31:06;;;;;;;3.95;2.72;;;15.60;99.90;;;;;;5039075;28;20509;-41
2023/08/18 03:33:33;;;;;;;6.75;2.85;;;15.60;99.90;;;;;;5041413;28;20524;-37
2023/08/18 03:35:59;;;;;;;4.63;3.08;;;15.60;99.90;;;;;;5025886;28;20037;-42
2023/08/18 03:38:26;;;;;;;4.22;2.67;;;15.60;99.90;;;;;;5040640;28;20130;-37
2023/08/18 03:40:59;;;;;;;5.70;3.00;;;15.60;99.90;;;;;;5044647;28;20032;-42
2023/08/18 03:43:25;;;;;;;3.28;2.67;;;15.60;99.90;;;;;;5041097;28;20025;-40
2023/08/18 03:45:51;;;;;;;2.65;2.25;;;15.60;99.90;;;;;;5036489;28;20029;-39
2023/08/18 03:48:16;;;;;;;2.40;2.20;;;15.40;99.90;;;;;;5039206;28;20518;-40
2023/08/18 03:50:42;;;;;;;7.20;2.10;;;15.30;99.90;;;;;;5041865;28;20032;-41
2023/08/18 03:53:08;;;;;;;2.05;1.80;;;15.30;99.90;;;;;;5038587;28;20040;-42
2023/08/18 03:55:33;;;;;;;2.00;1.80;;;15.30;99.90;;;;;;5034843;28;20041;-40
2023/08/18 03:57:59;;;;;;;4.40;2.20;;;15.20;99.90;;;;;;5040126;28;20436;-42
2023/08/18 04:00:24;;;;;;;2.22;2.03;;;15.10;99.90;;;;;;5043688;28;20025;-41
2023/08/18 04:02:50;;;;;;;1.85;1.75;;;15.10;99.90;;;;;;5034757;28;20068;-36
2023/08/18 04:05:16;;;;;;;2.13;1.50;;;15.10;99.90;;;;;;5039505;28;20120;-38
2023/08/18 04:07:41;;;;;;;1.60;1.50;;;15.10;99.90;;;;;;5042384;28;20037;-41
2023/08/18 04:10:07;;;;;;;1.50;1.40;;;15.10;99.90;;;;;;5044575;28;20037;-42
2023/08/18 04:12:34;;;;;;;1.33;1.23;;;15.10;99.90;;;;;;5040241;28;20041;-42
2023/08/18 04:15:00;;;;;;;1.67;1.58;;;15.00;99.90;;;;;;5039629;28;20517;-42
2023/08/18 04:17:25;;;;;;;1.90;1.80;;;15.00;99.90;;;;;;5039532;28;20045;-41
2023/08/18 04:19:51;;;;;;;1.60;1.50;;;14.90;99.90;;;;;;5042176;28;20083;-39
2023/08/18 04:22:17;;;;;;;3.50;1.98;;;14.90;99.90;;;;;;5039650;28;20060;-42
2023/08/18 04:24:43;;;;;;;3.40;2.45;;;15.00;99.90;;;;;;5034407;28;20056;-43
2023/08/18 04:27:08;;;;;;;3.20;2.90;;;15.10;99.90;;;;;;5022941;28;20029;-36
2023/08/18 04:29:34;;;;;;;3.30;3.00;;;15.00;99.90;;;;;;5042056;28;20111;-42
2023/08/18 04:32:00;;;;;;;3.25;2.95;;;15.10;99.90;;;;;;5035136;28;20071;-41
2023/08/18 04:34:25;;;;;;;5.03;3.30;;;15.10;99.90;;;;;;5036604;28;20047;-41
2023/08/18 04:36:51;;;;;;;4.20;3.80;;;15.10;99.90;;;;;;5022603;28;20028;-40
2023/08/18 04:39:16;;;;;;;3.65;3.00;;;15.10;99.90;;;;;;5035331;28;20041;-41
2023/08/18 04:41:42;;;;;;;4.93;3.25;;;15.00;99.90;;;;;;5038696;28;20070;-42
2023/08/18 04:44:08;;;;;;;5.95;3.55;;;14.90;99.90;;;;;;5021358;28;20416;-39
2023/08/18 04:46:34;;;;;;;5.78;4.10;;;14.90;99.90;;;;;;5041975;28;20029;-38
2023/08/18 04:48:59;;;;;;;8.23;4.25;;;14.90;99.90;;;;;;5038868;28;20025;-42
2023/08/18 04:51:25;;;;;;;7.30;5.22;;;15.00;99.90;;;;;;5041158;28;20036;-39
2023/08/18 04:53:50;;;;;;;6.75;4.05;;;14.90;99.90;;;;;;5040187;28;20372;-40
2023/08/18 04:56:16;;;;;;;5.55;3.88;;;14.90;99.90;;;;;;5036983;28;20792;-41
2023/08/18 04:58:42;;;;;;;5.43;4.00;;;14.90;99.90;;;;;;5036905;28;20505;-41
2023/08/18 05:01:07;;;;;;;5.63;3.95;;;14.90;99.90;;;;;;5037418;28;20033;-41
2023/08/18 05:03:36;;;;;;;4.50;3.38;;;14.90;99.90;;;;;;5021363;28;20044;-41
2023/08/18 05:06:08;;;;;;;;;;;15.00;99.90;;;;;;5037685;28;20037;-38
2023/08/18 05:08:39;;;;;;;4.50;3.47;;;15.10;99.90;;;;;;5037200;28;20330;-42
2023/08/18 05:11:07;;;;;;;4.80;3.47;;;15.20;99.90;;;;;;5035182;28;20036;-34
2023/08/18 05:13:33;;;;;;;4.20;3.63;;;15.10;99.90;;;;;;5039227;28;20089;-42
2023/08/18 05:16:00;;;;;;;4.93;3.65;;;15.20;99.90;;;;;;5038405;28;20037;-36
2023/08/18 05:18:26;;;;;;;4.28;3.88;;;15.30;99.90;;;;;;5036047;28;20040;-35
2023/08/18 05:20:52;;;;;;;4.32;3.92;;;15.40;99.90;;;;;;5036785;28;20090;-33
2023/08/18 05:23:18;;;;;;;5.55;3.85;;;15.50;99.90;;;;;;5018424;28;20029;-35
2023/08/18 05:25:48;;;;;;;6.95;4.00;;;15.50;99.90;;;;;;5035143;28;20436;-33
2023/08/18 05:28:14;;;;;;;5.88;4.90;;;15.50;99.90;;;;;;5030397;28;20037;-37
2023/08/18 05:30:47;;;;;;;6.03;4.95;;;15.60;99.90;;;;;;5032597;28;20075;-33
2023/08/18 05:33:13;;;;;;;8.20;5.65;;;15.60;99.90;;;;;;5013864;28;20037;-37
2023/08/18 05:35:39;;;;;;;7.68;6.22;;;15.60;99.90;;;;;;5029751;28;20540;-33
2023/08/18 05:38:10;;;;;;;8.05;5.85;;;15.70;99.90;;;;;;5036721;28;20032;-38
2023/08/18 05:40:37;;;;;;;9.20;6.18;;;15.80;99.90;;;;;;5032814;28;20550;-34
2023/08/18 05:43:03;;;;;;;11.25;6.65;;;15.90;99.90;;;;;;5030718;28;20079;-34
2023/08/18 05:45:28;;;;;;;9.65;5.82;;;15.90;99.90;;;;;;5033232;28;20044;-32
2023/08/18 05:47:54;;;;;;;9.57;6.72;;;16.00;99.90;;;;;;5033317;28;20040;-33
2023/08/18 05:50:20;;;;;;;8.52;6.10;;;16.10;99.90;;;;;;5034520;28;20033;-33
2023/08/18 05:52:45;;;;;;;7.88;6.13;;;16.10;99.90;;;;;;5034666;28;20029;-32
2023/08/18 05:55:11;;;;;;;8.73;6.35;;;16.30;99.90;;;;;;5034137;28;20061;-34
2023/08/18 05:57:41;;;;;;;10.48;5.95;;;16.40;99.90;;;;;;5036156;28;20032;-35
2023/08/18 06:00:10;;;;;;;8.02;6.18;;;16.40;99.90;;;;;;5035570;28;20086;-35
2023/08/18 06:02:35;;;;;;;8.43;5.75;;;16.50;99.90;;;;;;5014952;28;20556;-35
2023/08/18 06:05:01;;;;;;;9.55;6.45;;;16.60;99.90;;;;;;5030568;28;20085;-35
2023/08/18 06:07:27;;;;;;;8.80;6.40;;;16.80;99.90;;;;;;5035838;28;20136;-33
2023/08/18 06:09:52;;;;;;;8.27;6.00;;;16.90;99.90;;;;;;5037156;28;20033;-33
2023/08/18 06:12:18;;;;;;;7.95;5.95;;;17.00;99.90;;;;;;5034202;28;20646;-33
2023/08/18 06:14:43;;;;;;;7.50;6.03;;;17.20;99.90;;;;;;5022778;28;20573;-36
2023/08/18 06:17:09;;;;;;;7.93;5.53;;;17.40;99.90;;;;;;5038934;28;20171;-34
2023/08/18 06:19:34;;;;;;;8.65;6.10;;;17.40;99.90;;;;;;5038244;28;20116;-33
2023/08/18 06:22:00;;;;;;;7.68;5.85;;;17.60;99.90;;;;;;5027951;28;20083;-33
2023/08/18 06:24:25;;;;;;;8.30;5.78;;;17.80;99.90;;;;;;5048176;28;20037;-32
2023/08/18 06:26:51;;;;;;;9.15;6.13;;;17.90;99.90;;;;;;5041739;28;20064;-36
2023/08/18 06:29:17;;;;;;;7.63;5.65;;;18.00;99.90;;;;;;5040947;28;20490;-33
2023/08/18 06:31:42;;;;;;;6.68;5.25;;;18.10;99.90;;;;;;5043057;28;20639;-33
2023/08/18 06:34:08;;;;;;;9.32;5.65;;;18.30;99.90;;;;;;5041644;28;20455;-36
2023/08/18 06:36:33;;;;;;;6.25;4.90;;;18.40;99.90;;;;;;5042447;28;20020;-33
2023/08/18 06:38:59;;;;;;;6.55;4.13;;;18.40;99.90;;;;;;5044551;28;20681;-32
2023/08/18 06:41:24;;;;;;;5.15;4.20;;;18.40;99.90;;;;;;5043263;28;20606;-37
2023/08/18 06:43:50;;;;;;;6.95;4.53;;;18.40;99.90;;;;;;5044037;28;20036;-35
2023/08/18 06:46:16;;;;;;;4.82;3.83;;;18.50;99.90;;;;;;5026071;28;20029;-34
2023/08/18 06:48:42;;;;;;;5.03;4.07;;;18.50;99.90;;;;;;5040888;28;20037;-34
2023/08/18 06:51:07;;;;;;;4.00;3.65;;;18.60;99.90;;;;;;5044160;28;20068;-34
2023/08/18 06:53:33;;;;;;;5.28;4.22;;;18.80;99.90;;;;;;5043932;28;20018;-33
2023/08/18 06:55:58;;;;;;;5.57;3.70;;;18.90;99.90;;;;;;5039116;28;20033;-41
2023/08/18 06:58:24;;;;;;;5.75;3.80;;;19.00;99.90;;;;;;5034452;28;20049;-40
2023/08/18 07:00:50;;;;;;;4.03;3.35;;;19.20;99.90;;;;;;5042919;28;20020;-39
2023/08/18 07:03:15;;;;;;;3.45;3.15;;;19.20;99.90;;;;;;5038906;28;20037;-38
2023/08/18 07:05:41;;;;;;;3.97;3.53;;;19.20;99.90;;;;;;5034808;28;20040;-41
2023/08/18 07:08:07;;;;;;;6.30;3.60;;;19.40;99.90;;;;;;5045331;28;20033;-36
2023/08/18 07:10:32;;;;;;;8.15;4.05;;;19.50;99.90;;;;;;5041571;28;20037;-38
2023/08/18 07:12:58;;;;;;;5.13;3.42;;;19.60;99.90;;;;;;5038117;28;20061;-37
2023/08/18 07:15:23;;;;;;;4.18;3.55;;;19.70;99.90;;;;;;5039675;28;20110;-40
2023/08/18 07:17:49;;;;;;;4.80;3.17;;;19.80;99.90;;;;;;5043909;28;20047;-42
2023/08/18 07:20:15;;;;;;;4.47;3.00;;;19.90;99.90;;;;;;5037717;28;20475;-37
2023/08/18 07:22:41;;;;;;;4.32;2.85;;;20.10;99.90;;;;;;5042165;28;20029;-40
2023/08/18 07:25:09;;;;;;;4.68;3.08;;;20.20;99.90;;;;;;5039405;28;20645;-39
2023/08/18 07:27:35;;;;;;;;;;;20.40;99.90;;;;;;5027047;28;20071;-41
2023/08/18 07:30:01;;;;;;;3.85;3.05;;;20.50;99.90;;;;;;5041693;28;19913;-41
2023/08/18 07:32:26;;;;;;;4.10;2.95;;;20.60;99.90;;;;;;5037197;28;20047;-39
2023/08/18 07:34:52;;;;;;;5.00;2.60;;;20.40;99.90;;;;;;5037462;28;20026;-33
2023/08/18 07:37:17;;;;;;;5.10;2.67;;;20.30;99.90;;;;;;5040013;28;20086;-32
2023/08/18 07:39:43;;;;;;;4.57;3.00;;;20.50;99.90;;;;;;5035531;28;20030;-33
2023/08/18 07:42:09;;;;;;;3.10;2.80;;;20.70;99.90;;;;;;5039909;28;20083;-32
2023/08/18 07:44:34;;;;;;;3.60;2.67;;;20.70;99.90;;;;;;5040530;28;20033;-32
2023/08/18 07:47:00;;;;;;;3.17;2.78;;;20.60;99.90;;;;;;5044207;28;20025;-32
2023/08/18 07:49:26;;;;;;;3.17;2.60;;;20.70;99.90;;;;;;5039169;28;20106;-34
2023/08/18 07:51:51;;;;;;;3.60;2.65;;;20.80;99.90;;;;;;5035009;28;20845;-33
2023/08/18 07:54:17;;;;;;;3.78;3.10;;;20.70;99.90;;;;;;5040163;28;20025;-34
2023/08/18 07:56:43;;;;;;;2.78;2.58;;;20.80;99.90;;;;;;5040545;28;20036;-32
2023/08/18 07:59:09;;;;;;;4.43;2.97;;;21.00;99.90;;;;;;5035199;28;20041;-31
2023/08/18 08:01:35;;;;;;;4.03;2.60;;;21.10;99.90;;;;;;5041682;28;20094;-32
2023/08/18 08:04:00;;;;;;;3.97;2.10;;;21.30;99.90;;;;;;5041813;28;20422;-32
2023/08/18 08:06:29;;;;;;;3.85;2.67;;;21.50;99.90;;;;;;5039773;28;20033;-33
2023/08/18 08:08:55;;;;;;;3.53;2.70;;;21.70;99.90;;;;;;5023352;28;20033;-33
2023/08/18 08:11:21;;;;;;;4.32;2.60;;;21.60;99.90;;;;;;5044897;28;20020;-34
2023/08/18 08:13:46;;;;;;;4.53;2.60;;;21.50;99.90;;;;;;5041655;28;20036;-31
2023/08/18 08:16:12;;;;;;;3.85;2.85;;;21.60;99.90;;;;;;5044366;28;20036;-31
2023/08/18 08:18:38;;;;;;;3.63;2.63;;;21.60;99.90;;;;;;5039050;28;20049;-31
2023/08/18 08:21:03;;;;;;;3.38;2.60;;;21.70;99.90;;;;;;5045024;28;20032;-31
2023/08/18 08:23:29;;;;;;;2.92;2.60;;;21.70;99.90;;;;;;5044602;28;20473;-30
2023/08/18 08:25:55;;;;;;;3.38;3.08;;;21.80;99.90;;;;;;5038512;28;20469;-32
2023/08/18 08:28:20;;;;;;;3.20;2.45;;;21.90;99.90;;;;;;5041823;28;20029;-31
2023/08/18 08:30:46;;;;;;;2.55;2.30;;;22.00;99.90;;;;;;5040991;28;20029;-32
2023/08/18 08:33:12;;;;;;;2.78;2.50;;;22.00;99.90;;;;;;5039077;28;20385;-31
2023/08/18 08:35:38;;;;;;;2.35;2.15;;;22.10;99.90;;;;;;5040475;28;20405;-31
2023/08/18 08:38:04;;;;;;;4.03;2.65;;;22.40;99.90;;;;;;5034250;28;20045;-31
2023/08/18 08:40:29;;;;;;;3.03;2.65;;;22.60;99.90;;;;;;5041049;28;20021;-31
2023/08/18 08:42:56;;;;;;;4.57;2.17;;;22.40;99.90;;;;;;5036008;28;20029;-33
2023/08/18 08:45:23;;;;;;;3.78;2.80;;;22.50;99.90;;;;;;5035400;28;20568;-39
2023/08/18 08:47:50;;;;;;;3.17;2.47;;;22.50;99.90;;;;;;5033809;28;20062;-43
2023/08/18 08:50:17;;;;;;;2.73;2.47;;;22.60;99.90;;;;;;5015175;28;20506;-40
2023/08/18 08:52:47;;;;;;;2.30;2.10;;;22.70;99.90;;;;;;5035104;28;20058;-43
2023/08/18 08:55:15;;;;;;;3.03;2.28;;;23.00;99.90;;;;;;5038484;28;20086;-42
2023/08/18 08:57:41;;;;;;;4.18;2.10;;;23.00;99.90;;;;;;5026490;28;20024;-38
2023/08/18 09:00:09;;;;;;;2.47;2.28;;;23.00;99.90;;;;;;5034220;28;20427;-34
2023/08/18 09:02:34;;;;;;;;;;;23.00;99.90;;;;;;5034193;28;20074;-41
2023/08/18 09:05:00;;;;;;;3.45;2.17;;;23.10;99.90;;;;;;5033476;28;19920;-41
2023/08/18 09:07:28;;;;;;;3.67;2.20;;;23.10;99.90;;;;;;5040364;28;20626;-41
2023/08/18 09:09:53;;;;;;;2.53;2.10;;;23.30;99.90;;;;;;5043194;28;20091;-39
2023/08/18 09:12:27;;;;;;;2.78;2.08;;;23.50;99.90;;;;;;5033535;28;20045;-40
2023/08/18 09:14:53;;;;;;;2.55;2.13;;;23.50;99.90;;;;;;5033957;28;20033;-32
2023/08/18 09:17:22;;;;;;;3.33;2.10;;;23.50;99.90;;;;;;5029784;28;20064;-35
2023/08/18 09:19:49;;;;;;;3.42;2.15;;;24.00;99.90;;;;;;5023541;28;20079;-33
2023/08/18 09:22:21;;;;;;;2.80;2.00;;;24.00;99.90;;;;;;5036299;28;20041;-34
2023/08/18 09:24:50;;;;;;;2.42;1.95;;;24.00;99.90;;;;;;5036730;28;20040;-35
2023/08/18 09:27:16;;;;;;;2.05;1.85;;;24.00;99.90;;;;;;5033494;28;20040;-33
2023/08/18 09:29:41;;;;;;;2.45;2.10;;;23.90;99.90;;;;;;5034668;28;20387;-36
2023/08/18 09:32:07;;;;;;;4.00;2.42;;;23.80;99.90;;;;;;5039605;28;20556;-33
2023/08/18 09:34:42;;;;;;;2.58;2.38;;;23.80;99.90;;;;;;5036503;28;20016;-33
2023/08/18 09:37:08;;;;;;;2.67;2.30;;;23.80;99.90;;;;;;5034337;28;20022;-32
2023/08/18 09:39:34;;;;;;;2.42;2.22;;;24.00;99.90;;;;;;5040195;28;20063;-33
2023/08/18 09:41:59;;;;;;;3.28;2.40;;;24.20;99.90;;;;;;5041976;28;20029;-36
2023/08/18 09:44:26;;;;;;;2.80;2.60;;;24.40;99.90;;;;;;5042398;28;20494;-34
2023/08/18 09:46:56;;;;;;;2.30;1.92;;;24.80;99.90;;;;;;5043917;28;20037;-31
2023/08/18 09:49:23;;;;;;;2.75;2.00;;;25.10;99.90;;;;;;5026434;28;20128;-32
2023/08/18 09:52:03;;;;;;;2.40;1.90;;;25.00;99.90;;;;;;5026583;28;20032;-33
2023/08/18 09:54:32;;;;;;;2.63;2.42;;;24.70;99.90;;;;;;5045780;28;20029;-29
2023/08/18 09:57:07;;;;;;;2.92;2.45;;;24.50;99.90;;;;;;5048335;28;20418;-32
2023/08/18 09:59:40;;;;;;;2.85;2.20;;;24.60;99.90;;;;;;5043589;28;20257;-34
2023/08/18 10:02:07;;;;;;;2.35;2.20;;;24.90;99.90;;;;;;5043496;28;20029;-35
2023/08/18 10:04:41;;;;;;;2.53;2.33;;;25.20;99.90;;;;;;5046525;28;20651;-30
2023/08/18 10:07:07;;;;;;;4.78;2.20;;;25.40;99.90;;;;;;5043362;28;20063;-31
2023/08/18 10:09:34;;;;;;;2.38;2.17;;;25.50;99.90;;;;;;5044469;28;20033;-38
2023/08/18 10:12:01;;;;;;;2.33;2.13;;;25.60;99.90;;;;;;5025063;28;20033;-32
2023/08/18 10:14:28;;;;;;;2.65;2.25;;;25.60;99.90;;;;;;5044719;28;20033;-32
2023/08/18 10:16:55;;;;;;;2.47;2.28;;;25.40;99.90;;;;;;5038984;28;20033;-34
2023/08/18 10:19:49;;;;;;;2.47;2.28;;;25.40;99.90;;;;;;5043008;28;20021;-33
2023/08/18 10:22:16;;;;;;;2.60;2.30;;;25.40;99.90;;;;;;5023845;28;20028;-36
2023/08/18 10:24:47;;;;;;;2.47;2.25;;;25.40;99.90;;;;;;5027656;28;20119;-31
2023/08/18 10:27:27;;;;;;;2.85;2.55;;;25.50;99.90;;;;;;5039295;28;20107;-31
2023/08/18 10:30:07;;;;;;;2.22;1.90;;;25.60;99.90;;;;;;5045807;28;20037;-31
2023/08/18 10:32:33;;;;;;;2.17;1.98;;;25.40;99.90;;;;;;5041626;28;20076;-31
2023/08/18 10:35:17;;;;;;;2.15;1.95;;;25.40;99.90;;;;;;5045047;28;20034;-31
2023/08/18 10:37:44;;;;;;;2.85;2.30;;;25.60;99.90;;;;;;5040318;28;20032;-31
2023/08/18 10:40:19;;;;;;;2.55;2.17;;;25.60;99.90;;;;;;5024783;28;20033;-35
2023/08/18 10:42:44;;;;;;;5.00;1.88;;;25.80;99.90;;;;;;5042735;28;20120;-33
2023/08/18 10:45:27;;;;;;;4.88;1.90;;;26.20;99.90;;;;;;5046409;28;20103;-32
2023/08/18 10:47:54;;;;;;;2.78;2.17;;;26.60;99.90;;;;;;5030156;28;20025;-31
2023/08/18 10:50:19;;;;;;;2.22;2.00;;;26.60;99.90;;;;;;5039052;28;20051;-31
2023/08/18 10:52:45;;;;;;;2.60;1.90;;;26.30;99.90;;;;;;5045647;28;20029;-31
2023/08/18 10:55:11;;;;;;;2.75;2.10;;;26.30;99.90;;;;;;5042546;28;20034;-32
2023/08/18 10:57:40;;;;;;;3.22;2.20;;;26.30;99.90;;;;;;5039929;28;20509;-31
2023/08/18 11:00:10;;;;;;;15.70;3.13;;;26.30;99.90;;;;;;5041714;28;20083;-34
2023/08/18 11:02:37;;;;;;;3.15;1.88;;;26.30;99.90;;;;;;5043318;28;20064;-31
2023/08/18 11:05:06;;;;;;;2.80;1.90;;;26.50;99.90;;;;;;5043834;28;20039;-41
2023/08/18 11:07:32;;;;;;;3.13;1.90;;;26.70;99.90;;;;;;5037706;28;20038;-42
2023/08/18 11:09:57;;;;;;;2.65;1.83;;;26.70;99.90;;;;;;5041586;28;20047;-41
2023/08/18 11:12:23;;;;;;;2.30;1.88;;;26.90;99.90;;;;;;5043040;28;20071;-40
2023/08/18 11:14:49;;;;;;;2.60;1.80;;;26.90;99.90;;;;;;5043134;28;20100;-41
2023/08/18 11:17:14;;;;;;;2.88;1.70;;;27.30;99.90;;;;;;5042289;28;20055;-35
2023/08/18 11:19:40;;;;;;;2.25;2.00;;;27.20;99.90;;;;;;5039626;28;20090;-42
2023/08/18 11:22:06;;;;;;;2.63;1.90;;;26.90;99.90;;;;;;5039979;28;20232;-36
2023/08/18 11:24:34;;;;;;;2.05;1.95;;;26.80;99.90;;;;;;5040165;28;20079;-39
2023/08/18 11:27:01;;;;;;;1.80;1.70;;;27.10;99.90;;;;;;5042342;28;20803;-40
2023/08/18 11:29:27;;;;;;;1.88;1.55;;;27.40;99.90;;;;;;5040802;28;20033;-42
2023/08/18 11:31:53;;;;;;;3.95;1.58;;;27.70;99.90;;;;;;5039366;28;20469;-41
2023/08/18 11:34:20;;;;;;;1.73;1.63;;;27.80;99.90;;;;;;5035858;28;20029;-41
2023/08/18 11:36:46;;;;;;;1.67;1.58;;;27.60;99.90;;;;;;5043115;28;20029;-35
2023/08/18 11:39:12;;;;;;;4.57;1.80;;;27.80;99.90;;;;;;5042138;28;20066;-32
2023/08/18 11:41:43;;;;;;;1.85;1.70;;;28.10;99.90;;;;;;5041666;28;20120;-34
2023/08/18 11:44:09;;;;;;;1.70;1.60;;;28.30;99.90;;;;;;5039399;28;20025;-34
2023/08/18 11:46:39;;;;;;;1.50;1.40;;;28.20;99.90;;;;;;5038401;28;20030;-33
2023/08/18 11:49:25;;;;;;;2.55;1.60;;;28.20;99.90;;;;;;5043768;28;20111;-34
2023/08/18 11:51:53;;;;;;;1.92;1.70;;;28.20;99.90;;;;;;5032738;28;20120;-34
2023/08/18 11:54:19;;;;;;;1.83;1.70;;;28.40;99.90;;;;;;5036872;28;20025;-34
2023/08/18 11:56:45;;;;;;;1.60;1.50;;;28.30;99.90;;;;;;5027633;28;20024;-31
2023/08/18 11:59:21;;;;;;;1.90;1.60;;;28.50;99.90;;;;;;5036994;28;20025;-33
2023/08/18 12:01:47;;;;;;;2.47;1.80;;;28.50;99.90;;;;;;5035718;28;20032;-32
2023/08/18 12:04:13;;;;;;;1.67;1.57;;;28.60;99.90;;;;;;5037741;28;20052;-33
2023/08/18 12:06:39;;;;;;;2.00;1.65;;;28.30;99.90;;;;;;5038209;28;20057;-32
2023/08/18 12:09:05;;;;;;;1.45;1.33;;;28.50;99.90;;;;;;5037956;28;20024;-33
2023/08/18 12:11:34;;;;;;;2.35;1.48;;;28.40;99.90;;;;;;5040620;28;20498;-32
2023/08/18 12:14:00;;;;;;;1.60;1.50;;;28.60;99.90;;;;;;5040093;28;20026;-32
2023/08/18 12:16:25;;;;;;;2.50;1.65;;;28.80;99.90;;;;;;5036672;28;20392;-33
2023/08/18 12:18:51;;;;;;;1.65;1.55;;;28.90;99.90;;;;;;5039372;28;20045;-38
2023/08/18 12:21:17;;;;;;;2.25;1.80;;;28.80;99.90;;;;;;5039062;28;20123;-33
2023/08/18 12:23:42;;;;;;;1.55;1.30;;;28.60;99.90;;;;;;5041586;28;20037;-34
2023/08/18 12:26:08;;;;;;;1.88;1.52;;;28.50;99.90;;;;;;5041511;28;20560;-34
2023/08/18 12:28:34;;;;;;;1.60;1.50;;;28.60;99.90;;;;;;5021677;28;20498;-32
2023/08/18 12:31:00;;;;;;;1.60;1.50;;;28.70;99.90;;;;;;5042901;28;20564;-32
2023/08/18 12:33:26;;;;;;;1.90;1.60;;;29.00;99.90;;;;;;5041312;28;20037;-33
2023/08/18 12:35:52;;;;;;;1.83;1.45;;;29.10;99.90;;;;;;5037604;28;20033;-32
2023/08/18 12:38:17;;;;;;;1.83;1.70;;;29.20;99.90;;;;;;5030466;28;20025;-34
2023/08/18 12:40:43;;;;;;;1.50;1.40;;;29.20;99.90;;;;;;5037014;28;20025;-36
2023/08/18 12:43:09;;;;;;;1.85;1.40;;;29.20;99.90;;;;;;5038660;28;20099;-35
2023/08/18 12:45:35;;;;;;;2.20;1.20;;;29.10;99.90;;;;;;5037273;28;20033;-40